Terminal Aerodrome Forecast
Issued by NWS

Home | Current Version | Previous Version | Text Only | Print | Product List | Glossary Off
Versions: 1 2 3 4 5 6 7 8 9 10 11 12 13 14 15 16 17 18 19 20 21 22 23 24 25 26 27 28 29 30 31 32 33 34 35

000
FTUS43 KLOT 251700
TAFORD
TAF
KORD 251722Z 2518/2624 04005KT P6SM FEW030 OVC070
     FM252230 05008KT 2SM -SN SCT020 OVC035
     FM260000 04009KT 1 1/2SM -SN BR BKN020 OVC030
      TEMPO 2601/2605 1SM -SN BR OVC015
     FM260800 03013G18KT 3SM -SN BKN014 OVC020
     FM261800 35012G17KT P6SM BKN030=

USA.gov is the U.S. government's official web portal to all federal, state and local government web resources and services.